createdAt,value
2017-05-21T00:01:24.681Z,10.50
2017-05-21T00:03:52.364Z,10.83
2017-05-21T00:06:20.035Z,9.55
2017-05-21T00:08:47.680Z,9.13
2017-05-21T00:11:15.677Z,10.93
2017-05-21T00:13:43.325Z,9.45
2017-05-21T00:16:10.970Z,10.03
2017-05-21T00:18:38.664Z,10.48
2017-05-21T00:21:07.170Z,10.83
2017-05-21T00:23:35.233Z,10.37
2017-05-21T00:26:02.893Z,11.38
2017-05-21T00:28:30.545Z,9.73
2017-05-21T00:30:58.217Z,9.75
2017-05-21T00:33:26.626Z,9.63
2017-05-21T00:35:54.621Z,9.88
2017-05-21T00:38:22.291Z,10.17
2017-05-21T00:40:49.957Z,8.32
2017-05-21T00:43:18.402Z,9.10
2017-05-21T00:45:46.819Z,10.23
2017-05-21T00:48:14.877Z,11.28
2017-05-21T00:50:42.521Z,9.65
2017-05-21T00:53:10.181Z,10.03
2017-05-21T00:55:37.853Z,10.77
2017-05-21T00:58:05.505Z,9.97
2017-05-21T01:00:33.529Z,9.93
2017-05-21T01:03:01.179Z,10.63
2017-05-21T01:05:28.823Z,10.17
2017-05-21T01:07:56.524Z,9.82
2017-05-21T01:10:24.177Z,10.45
2017-05-21T01:12:52.169Z,9.77
2017-05-21T01:15:19.819Z,10.32
2017-05-21T01:17:47.476Z,10.03
2017-05-21T01:20:15.153Z,10.45
2017-05-21T01:22:42.803Z,8.02
2017-05-21T01:25:10.484Z,8.38
2017-05-21T01:27:38.127Z,8.75
2017-05-21T01:30:06.196Z,8.02
2017-05-21T01:32:34.610Z,10.12
2017-05-21T01:35:02.281Z,8.65
2017-05-21T01:37:30.716Z,9.38
2017-05-21T01:39:58.386Z,7.93
2017-05-21T01:42:26.377Z,9.83
2017-05-21T01:44:54.033Z,10.18
2017-05-21T01:47:21.672Z,9.43
2017-05-21T01:49:49.343Z,9.32
2017-05-21T01:52:17.102Z,9.32
2017-05-21T01:54:45.120Z,10.33
2017-05-21T01:57:12.769Z,10.28
2017-05-21T01:59:40.415Z,8.38
2017-05-21T02:02:08.085Z,8.58
2017-05-21T02:04:35.735Z,9.37
2017-05-21T02:07:04.482Z,8.17
2017-05-21T02:09:32.125Z,8.58
2017-05-21T02:11:59.769Z,8.85
2017-05-21T02:14:28.272Z,7.65
2017-05-21T02:16:55.914Z,9.50
2017-05-21T02:19:23.949Z,8.92
2017-05-21T02:21:51.597Z,8.40
2017-05-21T02:24:19.243Z,8.50
2017-05-21T02:26:46.916Z,7.88
2017-05-21T02:29:14.561Z,9.80
2017-05-21T02:31:43.301Z,8.30
2017-05-21T02:34:11.709Z,8.92
2017-05-21T02:36:39.353Z,10.03
2017-05-21T02:39:07.806Z,9.37
2017-05-21T02:41:36.217Z,9.17
2017-05-21T02:44:04.177Z,8.73
2017-05-21T02:46:32.596Z,9.78
2017-05-21T02:49:00.245Z,9.45
2017-05-21T02:51:28.798Z,9.13
2017-05-21T02:53:56.445Z,9.93
2017-05-21T02:56:25.185Z,9.77
2017-05-21T02:58:52.834Z,9.87
2017-05-21T03:01:20.478Z,10.33
2017-05-21T03:03:48.206Z,11.45
2017-05-21T03:06:15.845Z,9.93
2017-05-21T03:08:43.840Z,10.80
2017-05-21T03:11:12.340Z,9.75
2017-05-21T03:13:39.995Z,12.07
2017-05-21T03:16:07.676Z,10.48
2017-05-21T03:18:35.333Z,11.32
2017-05-21T03:21:03.307Z,10.13
2017-05-21T03:23:30.971Z,10.65
2017-05-21T03:25:58.631Z,12.07
2017-05-21T03:28:26.329Z,10.40
2017-05-21T03:30:54.766Z,9.82
2017-05-21T03:33:23.592Z,10.57
2017-05-21T03:35:52.005Z,9.53
2017-05-21T03:38:19.659Z,9.87
2017-05-21T03:40:47.337Z,8.98
2017-05-21T03:43:15.754Z,12.68
2017-05-21T03:45:44.609Z,11.77
2017-05-21T03:48:12.265Z,11.68
2017-05-21T03:50:40.692Z,11.30
2017-05-21T03:53:08.368Z,12.52
2017-05-21T03:55:36.781Z,10.50
2017-05-21T03:58:04.460Z,11.78
2017-05-21T04:00:32.974Z,9.83
2017-05-21T04:03:00.625Z,9.53
2017-05-21T04:05:28.280Z,10.53
2017-05-21T04:07:56.256Z,9.57
2017-05-21T04:10:23.938Z,10.97
2017-05-21T04:12:52.349Z,10.22
2017-05-21T04:15:20.027Z,10.88
2017-05-21T04:17:47.681Z,9.48
2017-05-21T04:20:15.729Z,10.35
2017-05-21T04:22:44.204Z,9.25
2017-05-21T04:25:11.857Z,11.03
2017-05-21T04:27:39.524Z,9.67
2017-05-21T04:30:07.170Z,9.95
2017-05-21T04:32:35.192Z,9.63
2017-05-21T04:35:02.835Z,9.67
2017-05-21T04:37:30.485Z,8.63
2017-05-21T04:39:58.161Z,10.28
2017-05-21T04:42:25.819Z,10.27
2017-05-21T04:44:53.827Z,12.23
2017-05-21T04:47:21.469Z,10.68
2017-05-21T04:49:49.122Z,10.85
2017-05-21T04:52:16.805Z,12.02
2017-05-21T04:54:45.233Z,10.23
2017-05-21T04:57:14.008Z,10.83
2017-05-21T04:59:42.445Z,12.38
2017-05-21T05:02:10.101Z,13.55
2017-05-21T05:04:38.545Z,12.45
2017-05-21T05:07:06.208Z,14.33
2017-05-21T05:09:34.182Z,12.13
2017-05-21T05:12:01.841Z,12.97
2017-05-21T05:14:30.261Z,12.10
2017-05-21T05:16:57.945Z,11.85
2017-05-21T05:19:25.634Z,14.25
2017-05-21T05:21:53.650Z,13.68
2017-05-21T05:24:22.082Z,11.78
2017-05-21T05:26:49.740Z,12.50
2017-05-21T05:29:17.440Z,13.27
2017-05-21T05:31:45.097Z,12.83
2017-05-21T05:34:13.057Z,13.53
2017-05-21T05:36:41.476Z,13.05
2017-05-21T05:39:09.128Z,12.30
2017-05-21T05:41:36.817Z,12.25
2017-05-21T05:44:04.484Z,11.10
2017-05-21T05:46:32.431Z,13.55
2017-05-21T05:49:00.854Z,10.83
2017-05-21T05:51:28.506Z,11.33
2017-05-21T05:53:56.210Z,11.75
2017-05-21T05:56:24.625Z,10.52
2017-05-21T05:58:52.640Z,10.02
2017-05-21T06:01:20.306Z,11.08
2017-05-21T06:03:48.896Z,10.35
2017-05-21T06:06:19.536Z,9.95
2017-05-21T06:08:47.165Z,10.08
2017-05-21T06:11:15.180Z,9.76
2017-05-21T06:13:43.571Z,9.24
2017-05-21T06:16:11.196Z,9.72
2017-05-21T06:18:38.857Z,8.30
2017-05-21T06:21:06.493Z,9.68
2017-05-21T06:23:34.421Z,7.90
2017-05-21T06:26:02.849Z,8.28
2017-05-21T06:28:30.473Z,7.64
2017-05-21T06:30:58.880Z,6.62
2017-05-21T06:33:26.511Z,8.64
2017-05-21T06:35:55.321Z,7.60
2017-05-21T06:38:23.706Z,8.36
2017-05-21T06:40:51.401Z,7.74
2017-05-21T06:43:19.813Z,7.10
2017-05-21T06:45:48.279Z,7.34
2017-05-21T06:48:16.325Z,8.38
2017-05-21T06:50:44.801Z,9.06
2017-05-21T06:53:12.433Z,7.94
2017-05-21T06:55:40.081Z,7.50
2017-05-21T06:58:08.583Z,8.98
2017-05-21T07:00:36.632Z,7.26
2017-05-21T07:03:04.286Z,6.66
2017-05-21T07:05:31.931Z,8.50
2017-05-21T07:07:59.769Z,8.38
2017-05-21T07:10:27.397Z,8.40
2017-05-21T07:12:55.426Z,6.96
2017-05-21T07:15:23.051Z,6.88
2017-05-21T07:17:50.797Z,7.62
2017-05-21T07:20:18.565Z,8.44
2017-05-21T07:22:46.194Z,8.44
2017-05-21T07:25:15.023Z,7.96
2017-05-21T07:27:42.650Z,8.78
2017-05-21T07:30:10.265Z,6.88
2017-05-21T07:32:37.990Z,8.48
2017-05-21T07:35:05.774Z,6.68
2017-05-21T07:37:33.720Z,8.90
2017-05-21T07:40:01.394Z,7.92
2017-05-21T07:42:29.783Z,8.14
2017-05-21T07:44:57.447Z,8.66
2017-05-21T07:47:25.824Z,8.14
2017-05-21T07:49:54.555Z,8.58
2017-05-21T07:52:22.235Z,8.00
2017-05-21T07:54:49.889Z,8.96
2017-05-21T07:57:17.528Z,7.64
2017-05-21T07:59:45.149Z,9.02
2017-05-21T08:02:13.844Z,10.96
2017-05-21T08:04:42.265Z,9.50
2017-05-21T08:07:09.884Z,8.66
2017-05-21T08:09:37.535Z,8.78
2017-05-21T08:12:05.200Z,8.16
2017-05-21T08:14:33.257Z,8.28
2017-05-21T08:17:01.108Z,8.44
2017-05-21T08:19:28.734Z,9.14
2017-05-21T08:21:56.397Z,7.80
2017-05-21T08:24:24.796Z,7.92
2017-05-21T08:26:52.950Z,10.08
2017-05-21T08:29:20.575Z,7.28
2017-05-21T08:31:48.197Z,5.74
2017-05-21T08:34:16.611Z,8.50
2017-05-21T08:36:44.246Z,8.70
2017-05-21T08:39:12.945Z,9.42
2017-05-21T08:41:40.600Z,9.26
2017-05-21T08:44:08.225Z,10.28
2017-05-21T08:46:36.636Z,9.56
2017-05-21T08:49:04.248Z,6.94
2017-05-21T08:51:32.198Z,8.58
2017-05-21T08:54:00.132Z,8.86
2017-05-21T08:56:28.056Z,9.08
2017-05-21T08:58:55.708Z,9.60
2017-05-21T09:01:25.335Z,8.20
2017-05-21T09:03:54.033Z,9.42
2017-05-21T09:06:21.837Z,7.92
2017-05-21T09:08:49.833Z,9.00
2017-05-21T09:11:17.737Z,9.08
2017-05-21T09:13:46.979Z,9.52
2017-05-21T09:16:16.237Z,9.26
2017-05-21T09:18:43.888Z,8.20
2017-05-21T09:21:12.282Z,7.74
2017-05-21T09:23:41.221Z,7.62
2017-05-21T09:26:08.880Z,9.58
2017-05-21T09:28:36.523Z,8.14
2017-05-21T09:31:04.174Z,7.98
2017-05-21T09:33:32.576Z,7.12
2017-05-21T09:36:05.401Z,7.10
2017-05-21T09:38:33.020Z,8.12
2017-05-21T09:41:01.421Z,6.56
2017-05-21T09:43:29.083Z,7.34
2017-05-21T09:45:56.716Z,8.34
2017-05-21T09:48:24.666Z,7.06
2017-05-21T09:50:53.065Z,7.94
2017-05-21T09:53:20.680Z,8.26
2017-05-21T09:55:48.324Z,8.22
2017-05-21T09:58:16.734Z,6.48
2017-05-21T10:00:44.697Z,6.72
2017-05-21T10:03:12.314Z,7.88
2017-05-21T10:05:40.726Z,8.28
2017-05-21T10:08:08.389Z,9.70
2017-05-21T10:10:36.782Z,8.48
2017-05-21T10:13:04.703Z,8.76
2017-05-21T10:15:32.316Z,6.16
2017-05-21T10:18:00.701Z,8.14
2017-05-21T10:20:28.357Z,7.52
2017-05-21T10:22:55.985Z,7.72
2017-05-21T10:25:23.934Z,7.98
2017-05-21T10:27:51.581Z,9.68
2017-05-21T10:30:20.001Z,9.32
2017-05-21T10:32:48.453Z,7.97
2017-05-21T10:35:16.117Z,8.47
2017-05-21T10:37:44.097Z,8.15
2017-05-21T10:40:11.734Z,8.32
2017-05-21T10:42:39.371Z,8.20
2017-05-21T10:45:07.185Z,8.74
2017-05-21T10:47:36.422Z,7.74
2017-05-21T10:50:04.491Z,8.76
2017-05-21T10:52:32.273Z,7.26
2017-05-21T10:54:59.945Z,8.54
2017-05-21T10:57:27.609Z,8.02
2017-05-21T10:59:55.355Z,7.58
2017-05-21T11:02:23.366Z,7.90
2017-05-21T11:04:51.564Z,5.46
2017-05-21T11:07:19.210Z,5.10
2017-05-21T11:09:47.618Z,5.84
2017-05-21T11:12:16.038Z,4.84
2017-05-21T11:14:44.090Z,3.70
2017-05-21T11:17:11.774Z,4.56
2017-05-21T11:19:39.434Z,4.64
2017-05-21T11:22:07.083Z,5.10
2017-05-21T11:24:34.774Z,4.90
2017-05-21T11:27:02.732Z,4.34
2017-05-21T11:29:30.372Z,4.32
2017-05-21T11:31:58.783Z,3.88
2017-05-21T11:34:26.439Z,3.50
2017-05-21T11:36:54.076Z,2.36
2017-05-21T11:39:22.147Z,2.62
2017-05-21T11:41:50.552Z,3.00
2017-05-21T11:44:18.167Z,3.70
2017-05-21T11:46:45.841Z,3.32
2017-05-21T11:49:14.232Z,4.08
2017-05-21T11:51:42.216Z,4.82
2017-05-21T11:54:09.843Z,2.84
2017-05-21T11:56:37.481Z,4.06
2017-05-21T11:59:05.146Z,3.42
2017-05-21T12:01:32.800Z,4.28
2017-05-21T12:04:00.420Z,4.06
2017-05-21T12:06:28.392Z,4.18
2017-05-21T12:08:56.807Z,3.42
2017-05-21T12:11:25.688Z,2.92
2017-05-21T12:13:53.697Z,3.78
2017-05-21T12:16:21.367Z,4.32
2017-05-21T12:18:49.756Z,5.50
2017-05-21T12:21:17.405Z,2.98
2017-05-21T12:23:45.040Z,3.58
2017-05-21T12:26:12.976Z,4.24
2017-05-21T12:28:40.605Z,2.82
2017-05-21T12:31:09.006Z,2.56
2017-05-21T12:33:37.425Z,3.04
2017-05-21T12:36:05.053Z,3.64
2017-05-21T12:38:33.873Z,2.82
2017-05-21T12:41:02.275Z,4.06
2017-05-21T12:43:30.665Z,4.16
2017-05-21T12:45:58.323Z,4.26
2017-05-21T12:48:26.013Z,5.00
2017-05-21T12:50:54.021Z,3.65
2017-05-21T12:53:22.480Z,3.78
2017-05-21T12:55:50.129Z,3.80
2017-05-21T12:58:17.787Z,3.58
2017-05-21T13:00:45.413Z,4.64
2017-05-21T13:03:14.206Z,3.90
2017-05-21T13:05:41.847Z,4.20
2017-05-21T13:08:09.472Z,3.34
2017-05-21T13:10:37.142Z,3.52
2017-05-21T13:13:04.797Z,5.30
2017-05-21T13:15:32.721Z,3.10
2017-05-21T13:18:01.117Z,2.74
2017-05-21T13:20:28.750Z,3.48
2017-05-21T13:22:56.566Z,3.10
2017-05-21T13:25:24.274Z,2.88
2017-05-21T13:27:52.218Z,2.64
2017-05-21T13:30:20.608Z,3.20
2017-05-21T13:32:48.997Z,4.44
2017-05-21T13:35:16.658Z,3.24
2017-05-21T13:37:44.290Z,3.26
2017-05-21T13:40:12.224Z,3.16
2017-05-21T13:42:39.848Z,2.98
2017-05-21T13:45:07.476Z,3.10
2017-05-21T13:47:35.116Z,3.10
2017-05-21T13:50:02.742Z,3.26
2017-05-21T13:52:30.735Z,5.30
2017-05-21T13:54:58.582Z,3.12
2017-05-21T13:57:26.235Z,3.24
2017-05-21T13:59:53.887Z,3.82
2017-05-21T14:02:22.300Z,2.70
2017-05-21T14:04:50.371Z,3.14
2017-05-21T14:07:18.876Z,3.70
2017-05-21T14:09:47.285Z,2.58
2017-05-21T14:12:15.711Z,3.62
2017-05-21T14:14:44.111Z,4.64
2017-05-21T14:19:45.985Z,2.18
2017-05-21T14:22:13.989Z,3.02
2017-05-21T14:24:41.655Z,2.72
2017-05-21T14:27:09.289Z,2.52
2017-05-21T14:29:37.138Z,2.78
2017-05-21T14:32:05.573Z,2.44
2017-05-21T14:34:33.496Z,2.60
2017-05-21T14:37:01.131Z,2.60
2017-05-21T14:39:29.515Z,2.00
2017-05-21T14:41:57.936Z,3.78
2017-05-21T14:44:26.337Z,2.74
2017-05-21T14:46:54.270Z,3.18
2017-05-21T14:49:21.905Z,2.40
2017-05-21T14:51:50.330Z,3.16
2017-05-21T14:54:18.003Z,2.92
2017-05-21T14:56:45.678Z,2.16
2017-05-21T14:59:13.656Z,3.06
2017-05-21T15:01:41.301Z,3.00
2017-05-21T15:04:09.714Z,2.38
2017-05-21T15:06:38.161Z,2.47
2017-05-21T15:09:05.825Z,2.27
2017-05-21T15:11:33.825Z,3.72
2017-05-21T15:14:01.482Z,2.67
2017-05-21T15:16:29.124Z,2.66
2017-05-21T15:18:56.772Z,5.12
2017-05-21T15:21:24.418Z,2.58
2017-05-21T15:23:53.182Z,2.86
2017-05-21T15:26:20.816Z,2.32
2017-05-21T15:28:49.203Z,3.64
2017-05-21T15:31:16.853Z,3.28
2017-05-21T15:33:45.260Z,2.84
2017-05-21T15:36:13.264Z,2.40
2017-05-21T15:38:40.948Z,2.30
2017-05-21T15:41:08.595Z,2.60
2017-05-21T15:43:37.058Z,3.98
2017-05-21T15:46:04.705Z,2.58
2017-05-21T15:48:32.675Z,3.46
2017-05-21T15:51:00.338Z,2.60
2017-05-21T15:53:28.753Z,2.85
2017-05-21T15:55:56.539Z,3.85
2017-05-21T15:58:24.222Z,2.50
2017-05-21T16:00:52.192Z,6.70
2017-05-21T16:03:20.595Z,2.92
2017-05-21T16:05:48.264Z,2.78
2017-05-21T16:08:15.963Z,4.58
2017-05-21T16:10:43.592Z,3.80
2017-05-21T16:13:12.293Z,2.96
2017-05-21T16:15:39.932Z,2.34
2017-05-21T16:18:08.361Z,2.77
2017-05-21T16:20:36.014Z,2.10
2017-05-21T16:23:04.447Z,2.54
2017-05-21T16:25:32.386Z,2.40
2017-05-21T16:28:00.800Z,2.43
2017-05-21T16:30:28.414Z,2.74
2017-05-21T16:32:56.852Z,2.32
2017-05-21T16:35:24.493Z,2.78
2017-05-21T16:37:52.523Z,2.78
2017-05-21T16:40:21.660Z,2.60
2017-05-21T16:42:49.292Z,2.96
2017-05-21T16:45:17.001Z,2.28
2017-05-21T16:47:45.478Z,2.08
2017-05-21T16:50:13.504Z,1.95
2017-05-21T16:52:41.921Z,2.35
2017-05-21T16:55:10.352Z,3.90
2017-05-21T16:57:38.800Z,2.25
2017-05-21T17:00:06.440Z,2.05
2017-05-21T17:02:35.153Z,2.17
2017-05-21T17:05:02.804Z,1.90
2017-05-21T17:07:30.469Z,3.12
2017-05-21T17:09:58.136Z,1.58
2017-05-21T17:12:25.788Z,1.87
2017-05-21T17:14:53.828Z,2.00
2017-05-21T17:17:21.481Z,1.85
2017-05-21T17:19:49.132Z,1.77
2017-05-21T17:22:16.835Z,1.88
2017-05-21T17:24:44.551Z,2.03
2017-05-21T17:27:12.505Z,2.03
2017-05-21T17:29:40.164Z,1.92
2017-05-21T17:32:07.826Z,1.85
2017-05-21T17:34:35.541Z,1.75
2017-05-21T17:37:03.200Z,1.90
2017-05-21T17:39:31.160Z,2.68
2017-05-21T17:41:58.808Z,2.03
2017-05-21T17:44:26.469Z,2.43
2017-05-21T17:46:54.146Z,2.20
2017-05-21T17:49:21.805Z,2.17
2017-05-21T17:51:50.662Z,1.88
2017-05-21T17:54:18.412Z,1.40
2017-05-21T17:56:46.062Z,2.32
2017-05-21T17:59:13.744Z,1.87
2017-05-21T18:01:41.438Z,1.82
2017-05-21T18:04:09.471Z,1.80
2017-05-21T18:06:37.177Z,1.75
2017-05-21T18:09:04.837Z,1.88
2017-05-21T18:11:32.598Z,2.00
2017-05-21T18:14:00.260Z,2.15
2017-05-21T18:16:28.334Z,2.15
2017-05-21T18:18:55.996Z,1.93
2017-05-21T18:21:23.652Z,1.70
2017-05-21T18:23:51.472Z,2.17
2017-05-21T18:26:19.953Z,1.85
2017-05-21T18:28:48.073Z,1.98
2017-05-21T18:31:15.737Z,1.85
2017-05-21T18:33:43.384Z,1.65
2017-05-21T18:36:11.301Z,1.80
2017-05-21T18:38:39.774Z,3.48
2017-05-21T18:41:07.748Z,1.60
2017-05-21T18:43:35.394Z,1.87
2017-05-21T18:46:03.072Z,2.02
2017-05-21T18:48:30.753Z,2.43
2017-05-21T18:50:59.175Z,2.55
2017-05-21T18:53:28.101Z,3.78
2017-05-21T18:55:57.268Z,2.80
2017-05-21T18:58:25.633Z,2.50
2017-05-21T19:00:53.754Z,2.42
2017-05-21T19:03:23.231Z,2.72
2017-05-21T19:05:51.219Z,2.43
2017-05-21T19:08:19.640Z,2.60
2017-05-21T19:10:47.296Z,2.82
2017-05-21T19:13:14.989Z,2.32
2017-05-21T19:15:42.653Z,2.38
2017-05-21T19:18:11.376Z,3.77
2017-05-21T19:20:39.040Z,3.12
2017-05-21T19:23:06.713Z,7.45
2017-05-21T19:25:35.160Z,6.27
2017-05-21T19:28:02.822Z,7.40
2017-05-21T19:30:30.500Z,6.87
2017-05-21T19:32:58.947Z,7.62
2017-05-21T19:35:26.714Z,8.30
2017-05-21T19:37:54.686Z,7.30
2017-05-21T19:40:23.120Z,10.80
2017-05-21T19:42:50.848Z,8.42
2017-05-21T19:45:19.560Z,8.10
2017-05-21T19:47:47.287Z,7.78
2017-05-21T19:50:14.964Z,8.33
2017-05-21T19:52:43.172Z,12.03
2017-05-21T19:55:10.827Z,11.48
2017-05-21T19:57:38.493Z,14.68
2017-05-21T20:00:06.334Z,16.18
2017-05-21T20:02:33.982Z,12.40
2017-05-21T20:05:01.946Z,8.70
2017-05-21T20:07:29.607Z,6.35
2017-05-21T20:09:57.268Z,8.90
2017-05-21T20:12:24.960Z,11.13
2017-05-21T20:14:52.603Z,9.97
2017-05-21T20:17:20.600Z,8.80
2017-05-21T20:19:48.274Z,10.05
2017-05-21T20:22:15.925Z,8.70
2017-05-21T20:24:43.971Z,7.00
2017-05-21T20:27:12.380Z,6.62
2017-05-21T20:29:40.338Z,6.63
2017-05-21T20:32:07.993Z,5.95
2017-05-21T20:34:35.649Z,9.68
2017-05-21T20:37:03.312Z,9.42
2017-05-21T20:39:30.961Z,13.98
2017-05-21T20:41:59.962Z,10.22
2017-05-21T20:44:28.509Z,9.98
2017-05-21T20:46:56.166Z,7.23
2017-05-21T20:49:24.441Z,6.45
2017-05-21T20:51:52.106Z,7.83
2017-05-21T20:54:20.105Z,7.88
2017-05-21T20:56:47.757Z,8.02
2017-05-21T20:59:15.408Z,10.08
2017-05-21T21:01:43.118Z,11.50
2017-05-21T21:04:10.910Z,12.62
2017-05-21T21:06:38.965Z,13.30
2017-05-21T21:09:06.616Z,10.80
2017-05-21T21:11:34.263Z,9.70
2017-05-21T21:14:02.711Z,9.87
2017-05-21T21:16:30.368Z,8.63
2017-05-21T21:18:59.122Z,7.88
2017-05-21T21:21:26.765Z,8.78
2017-05-21T21:24:00.220Z,7.90
2017-05-21T21:26:28.186Z,7.25
2017-05-21T21:29:02.209Z,8.13
2017-05-21T21:31:29.861Z,8.55
2017-05-21T21:33:57.519Z,7.83
2017-05-21T21:36:25.261Z,10.43
2017-05-21T21:38:53.914Z,9.70
2017-05-21T21:41:21.877Z,9.65
2017-05-21T21:43:49.526Z,9.53
2017-05-21T21:46:17.180Z,9.30
2017-05-21T21:48:45.626Z,8.77
2017-05-21T21:51:13.287Z,7.70
2017-05-21T21:53:41.241Z,7.98
2017-05-21T21:56:11.620Z,7.58
2017-05-21T21:58:39.284Z,7.72
2017-05-21T22:01:06.964Z,6.73
2017-05-21T22:03:35.423Z,6.13
2017-05-21T22:06:03.374Z,6.25
2017-05-21T22:08:31.030Z,6.37
2017-05-21T22:10:59.437Z,6.72
2017-05-21T22:13:27.153Z,5.67
2017-05-21T22:15:54.794Z,5.12
2017-05-21T22:18:23.508Z,6.20
2017-05-21T22:20:51.918Z,7.08
2017-05-21T22:23:20.346Z,5.70
2017-05-21T22:25:48.029Z,6.03
2017-05-21T22:28:15.665Z,6.30
2017-05-21T22:30:44.422Z,6.03
2017-05-21T22:33:12.873Z,7.08
2017-05-21T22:35:40.517Z,7.25
2017-05-21T22:38:08.949Z,6.52
2017-05-21T22:40:37.378Z,6.15
2017-05-21T22:43:05.432Z,6.45
2017-05-21T22:45:34.029Z,6.00
2017-05-21T22:48:01.675Z,5.82
2017-05-21T22:50:30.119Z,6.72
2017-05-21T22:52:57.769Z,6.43
2017-05-21T22:55:26.477Z,6.20
2017-05-21T22:57:54.121Z,6.48
2017-05-21T23:00:21.771Z,6.30
2017-05-21T23:02:49.442Z,7.07
2017-05-21T23:05:17.093Z,5.98
2017-05-21T23:07:45.813Z,6.38
2017-05-21T23:10:13.457Z,5.43
2017-05-21T23:12:41.101Z,6.30
2017-05-21T23:15:09.538Z,5.90
2017-05-21T23:17:37.955Z,5.87
2017-05-21T23:20:05.930Z,6.20
2017-05-21T23:22:34.345Z,5.52
2017-05-21T23:25:02.005Z,5.48
2017-05-21T23:27:30.453Z,6.18
2017-05-21T23:29:58.117Z,5.00
2017-05-21T23:32:26.856Z,5.47
2017-05-21T23:34:54.507Z,5.35
2017-05-21T23:37:22.917Z,4.28
2017-05-21T23:39:51.367Z,5.25
2017-05-21T23:42:19.787Z,5.02
2017-05-21T23:44:47.769Z,4.62
2017-05-21T23:47:15.417Z,4.15
2017-05-21T23:49:43.078Z,4.55
2017-05-21T23:52:10.753Z,4.52
2017-05-21T23:54:38.403Z,5.10
2017-05-21T23:57:06.496Z,7.35
2017-05-21T23:59:34.148Z,4.75
